Time;durP1;ratioP1;P1;durP2;ratioP2;P2;SDS_P1;SDS_P2;PMS_P1;PMS_P2;Temp;Humidity;BMP_temperature;BMP_pressure;BME280_temperature;BME280_humidity;BME280_pressure;Samples;Min_cycle;Max_cycle;Signal;HPM_P1;HPM_P2
2022/06/21 00:01:26;;;;;;;13.93;9.77;;;;;;;11.16;85.28;101662.38;5031437;28;20021;-72
2022/06/21 00:03:52;;;;;;;13.52;9.15;;;;;;;11.15;85.11;101653.28;5031366;28;20021;-66
2022/06/21 00:06:21;;;;;;;15.13;9.50;;;;;;;11.09;84.87;101648.63;5046751;28;20025;-72
2022/06/21 00:08:46;;;;;;;18.20;9.20;;;;;;;11.05;85.14;101647.38;5047066;28;20069;-72
2022/06/21 00:11:21;;;;;;;16.90;9.82;;;;;;;10.99;85.13;101648.22;5047336;28;20178;-72
2022/06/21 00:13:47;;;;;;;15.57;9.25;;;;;;;10.97;85.46;101655.84;5028526;28;20033;-72
2022/06/21 00:16:14;;;;;;;13.40;9.75;;;;;;;10.93;85.77;101664.72;5045091;28;20029;-72
2022/06/21 00:18:42;;;;;;;15.07;9.63;;;;;;;10.89;85.73;101665.13;5046463;28;20119;-72
2022/06/21 00:21:24;;;;;;;16.55;9.70;;;;;;;10.97;86.10;101661.34;5045992;28;20033;-72
2022/06/21 00:23:51;;;;;;;19.42;10.70;;;;;;;10.98;86.14;101656.69;5038791;28;20029;-72
2022/06/21 00:26:18;;;;;;;17.70;9.65;;;;;;;11.08;86.58;101663.44;5046795;28;20013;-72
2022/06/21 00:28:43;;;;;;;15.80;9.73;;;;;;;11.06;85.75;101651.81;5047266;28;20033;-72
2022/06/21 00:31:16;;;;;;;16.73;10.50;;;;;;;11.01;86.44;101659.03;5045411;28;20582;-72
2022/06/21 00:33:42;;;;;;;20.45;11.18;;;;;;;10.95;86.33;101659.84;5029549;28;20030;-73
2022/06/21 00:36:17;;;;;;;17.13;10.25;;;;;;;10.97;86.80;101663.25;5045065;28;20029;-72
2022/06/21 00:38:43;;;;;;;16.50;9.80;;;;;;;10.97;85.48;101660.50;5037395;28;20028;-72
2022/06/21 00:41:11;;;;;;;18.65;9.95;;;;;;;10.91;86.41;101657.56;5046441;28;20031;-72
2022/06/21 00:43:45;;;;;;;15.30;10.13;;;;;;;10.95;86.14;101657.97;5044999;28;20028;-72
2022/06/21 00:46:22;;;;;;;16.15;9.63;;;;;;;10.96;85.87;101650.56;5047314;28;20032;-72
2022/06/21 00:48:50;;;;;;;17.53;9.57;;;;;;;10.81;86.41;101661.78;5046277;28;20036;-72
2022/06/21 00:51:31;;;;;;;16.52;10.55;;;;;;;10.72;86.77;101658.41;5044955;28;20299;-71
2022/06/21 00:54:02;;;;;;;16.27;9.65;;;;;;;10.64;86.52;101655.84;5030080;28;20552;-73
2022/06/21 00:56:33;;;;;;;14.38;10.07;;;;;;;10.62;86.68;101658.81;5032722;28;20106;-72
2022/06/21 00:59:15;;;;;;;20.30;11.57;;;;;;;10.69;87.53;101644.22;5026912;28;20033;-73
2022/06/21 01:01:40;;;;;;;19.50;11.15;;;;;;;10.59;87.51;101642.78;5035557;23;21140;-73
2022/06/21 01:04:14;;;;;;;21.45;11.52;;;;;;;10.58;88.12;101641.06;5044323;28;20469;-72
2022/06/21 01:06:44;;;;;;;19.90;10.65;;;;;;;10.56;87.86;101645.09;5046451;28;20033;-72
2022/06/21 01:09:20;;;;;;;18.75;11.38;;;;;;;10.58;88.64;101646.56;5046044;28;20036;-72
2022/06/21 01:11:50;;;;;;;17.80;11.32;;;;;;;10.54;88.70;101649.94;5044395;28;20033;-72
2022/06/21 01:14:20;;;;;;;16.75;10.75;;;;;;;10.50;88.13;101644.03;5046894;28;20045;-72
2022/06/21 01:16:45;;;;;;;16.13;10.48;;;;;;;10.56;88.33;101636.84;5045464;28;20053;-73
2022/06/21 01:19:20;;;;;;;12.40;9.10;;;;;;;10.61;87.00;101634.31;5044793;28;20417;-73
2022/06/21 01:21:49;;;;;;;16.70;9.35;;;;;;;10.45;87.31;101632.00;5044867;28;20425;-73
2022/06/21 01:24:23;;;;;;;18.27;9.70;;;;;;;10.24;88.63;101627.53;5044774;28;20350;-72
2022/06/21 01:27:01;;;;;;;16.90;10.43;;;;;;;10.25;89.17;101629.25;5046227;28;20056;-72
2022/06/21 01:29:30;;;;;;;17.95;11.45;;;;;;;10.16;88.99;101625.81;5045659;28;20473;-72
2022/06/21 01:31:58;;;;;;;18.55;10.57;;;;;;;10.16;89.09;101622.22;5043942;28;20369;-72
2022/06/21 01:34:25;;;;;;;18.02;10.82;;;;;;;10.11;88.93;101628.34;5045050;28;20095;-72
2022/06/21 01:37:14;;;;;;;18.88;11.27;;;;;;;10.10;89.48;101623.91;5046029;28;20032;-72
2022/06/21 01:39:42;;;;;;;18.90;11.30;;;;;;;10.10;89.24;101634.88;5045118;28;20041;-72
2022/06/21 01:42:27;;;;;;;17.23;10.82;;;;;;;10.12;89.05;101636.34;5043683;28;20100;-72
2022/06/21 01:44:57;;;;;;;17.95;11.13;;;;;;;10.07;89.48;101643.53;5045546;28;20346;-73
2022/06/21 01:47:27;;;;;;;18.63;11.48;;;;;;;10.16;89.62;101633.19;5045862;28;20099;-72
2022/06/21 01:49:58;;;;;;;21.73;11.70;;;;;;;10.13;88.88;101632.53;5044270;28;20146;-72
2022/06/21 01:52:26;;;;;;;16.13;10.80;;;;;;;10.04;88.95;101632.97;5044189;28;20025;-72
2022/06/21 01:55:15;;;;;;;19.05;11.60;;;;;;;10.08;89.38;101631.47;5044177;28;20031;-68
2022/06/21 01:57:41;;;;;;;15.95;10.82;;;;;;;9.99;88.94;101619.03;5045703;28;20096;-72
2022/06/21 02:00:06;;;;;;;18.65;10.95;;;;;;;9.91;88.40;101617.31;5044301;28;20021;-73
2022/06/21 02:02:38;;;;;;;16.17;11.23;;;;;;;9.83;89.62;101610.13;5044750;28;20041;-72
2022/06/21 02:05:09;;;;;;;19.70;12.25;;;;;;;9.79;88.98;101600.63;5043906;28;20392;-73
2022/06/21 02:07:42;;;;;;;19.20;11.90;;;;;;;9.73;89.16;101609.69;5045552;28;20017;-72
2022/06/21 02:10:13;;;;;;;18.25;12.35;;;;;;;9.68;89.14;101603.97;5042610;28;20028;-72
2022/06/21 02:12:44;;;;;;;20.33;11.23;;;;;;;9.66;89.74;101614.28;5044194;28;20366;-72
2022/06/21 02:15:22;;;;;;;23.25;12.35;;;;;;;9.72;90.58;101612.59;5044945;28;20481;-72
2022/06/21 02:17:48;;;;;;;18.63;12.07;;;;;;;9.78;90.52;101604.41;5046128;28;20029;-72
2022/06/21 02:20:25;;;;;;;22.45;12.50;;;;;;;9.79;90.68;101602.53;5044475;28;20017;-72
2022/06/21 02:22:50;;;;;;;18.05;13.20;;;;;;;9.85;90.35;101597.03;5043291;28;20028;-72
2022/06/21 02:25:23;;;;;;;21.80;13.63;;;;;;;9.87;91.07;101602.31;5044313;28;20469;-72
2022/06/21 02:27:50;;;;;;;22.33;12.88;;;;;;;9.86;90.47;101608.84;5045442;28;20036;-72
2022/06/21 02:30:22;;;;;;;17.67;13.17;;;;;;;9.86;90.99;101600.63;5044157;28;20032;-72
2022/06/21 02:32:50;;;;;;;21.75;13.23;;;;;;;9.86;90.59;101592.41;5043450;28;20649;-72
2022/06/21 02:35:22;;;;;;;20.15;13.27;;;;;;;9.79;90.31;101580.56;5041922;28;20032;-72
2022/06/21 02:37:49;;;;;;;24.10;13.52;;;;;;;9.74;90.45;101566.63;5045080;28;20083;-72
2022/06/21 02:40:22;;;;;;;19.50;13.90;;;;;;;9.74;90.91;101559.25;5044736;28;20035;-73
2022/06/21 02:42:50;;;;;;;22.88;14.73;;;;;;;9.72;91.53;101550.38;5043725;28;20638;-72
2022/06/21 02:45:26;;;;;;;19.13;13.75;;;;;;;9.75;91.36;101551.88;5044986;28;20017;-72
2022/06/21 02:47:54;;;;;;;22.58;13.40;;;;;;;9.71;90.67;101545.94;5043755;28;20136;-73
2022/06/21 02:50:32;;;;;;;24.98;15.68;;;;;;;9.69;90.86;101559.03;5044288;28;20082;-72
2022/06/21 02:53:00;;;;;;;22.98;13.90;;;;;;;9.75;90.95;101560.94;5043189;28;20033;-73
2022/06/21 02:55:51;;;;;;;24.52;14.60;;;;;;;9.79;90.66;101558.63;5044112;28;20028;-73
2022/06/21 02:58:39;;;;;;;22.77;14.43;;;;;;;9.87;90.74;101559.25;5032459;28;20048;-72
2022/06/21 03:01:28;;;;;;;28.00;15.57;;;;;;;9.92;91.52;101555.03;5044951;28;20044;-71
2022/06/21 03:03:54;;;;;;;21.75;15.43;;;;;;;9.94;90.61;101561.19;5041342;28;20045;-73
2022/06/21 03:06:21;;;;;;;26.83;16.23;;;;;;;9.94;90.83;101570.25;5044781;28;20483;-72
2022/06/21 03:08:54;;;;;;;24.35;15.50;;;;;;;9.93;90.89;101575.94;5044031;28;20017;-72
2022/06/21 03:11:22;;;;;;;27.38;17.77;;;;;;;9.95;91.44;101582.91;5044164;28;20044;-72
2022/06/21 03:13:49;;;;;;;33.20;18.90;;;;;;;9.96;91.52;101589.25;5043531;28;20029;-72
2022/06/21 03:16:18;;;;;;;29.98;17.40;;;;;;;9.92;91.96;101585.22;5044493;28;20519;-72
2022/06/21 03:18:51;;;;;;;27.17;17.65;;;;;;;9.93;92.09;101586.91;5043864;28;20021;-72
2022/06/21 03:21:23;;;;;;;28.90;17.75;;;;;;;9.96;92.24;101594.75;5044780;28;20041;-72
2022/06/21 03:23:49;;;;;;;26.95;18.00;;;;;;;9.97;91.72;101601.91;5043311;28;20116;-72
2022/06/21 03:26:14;;;;;;;32.10;17.55;;;;;;;9.97;91.81;101604.66;5044596;28;20151;-72
2022/06/21 03:28:45;;;;;;;33.45;18.90;;;;;;;10.04;92.59;101606.38;5045135;28;20099;-73
2022/06/21 03:31:31;;;;;;;30.08;18.10;;;;;;;10.09;92.74;101603.00;5043378;28;20033;-72
2022/06/21 03:34:03;;;;;;;30.27;18.13;;;;;;;10.14;92.62;101589.50;5041102;28;20040;-73
2022/06/21 03:36:29;;;;;;;27.40;17.15;;;;;;;10.05;91.38;101590.75;5043969;28;20489;-73
2022/06/21 03:39:05;;;;;;;30.95;17.55;;;;;;;9.85;91.77;101585.22;5043471;28;20032;-72
2022/06/21 03:41:43;;;;;;;32.97;18.83;;;;;;;9.76;92.37;101580.97;5047000;28;20086;-72
2022/06/21 03:44:25;;;;;;;28.70;18.45;;;;;;;9.74;92.31;101562.00;5046195;28;20025;-72
2022/06/21 03:47:10;;;;;;;25.80;17.02;;;;;;;9.73;92.74;101557.56;5048832;28;20456;-72
2022/06/21 03:49:45;;;;;;;31.30;19.27;;;;;;;9.67;92.58;101554.78;5044800;28;20028;-72
2022/06/21 03:52:41;;;;;;;28.70;17.95;;;;;;;9.60;92.12;101549.28;5046502;28;20473;-72
2022/06/21 03:55:25;;;;;;;34.22;18.05;;;;;;;9.60;92.33;101549.28;5047448;28;20148;-72
2022/06/21 03:58:09;;;;;;;24.35;17.77;;;;;;;9.64;92.32;101539.59;5007218;28;20116;-72
2022/06/21 04:00:48;;;;;;;27.75;17.15;;;;;;;9.57;91.76;101544.22;5047493;28;20083;-72
2022/06/21 04:03:28;;;;;;;29.77;17.98;;;;;;;9.57;91.93;101546.94;5044061;28;20129;-72
2022/06/21 04:06:21;;;;;;;31.02;18.50;;;;;;;9.55;92.53;101549.91;5032712;28;20021;-72
2022/06/21 04:09:05;;;;;;;36.20;19.67;;;;;;;9.58;93.35;101555.00;5047133;28;20537;-72
2022/06/21 04:12:04;;;;;;;31.67;19.02;;;;;;;9.68;94.30;101562.81;5048089;28;20037;-72
2022/06/21 04:14:50;;;;;;;35.63;19.90;;;;;;;9.72;93.93;101569.56;5038234;28;20041;-72
2022/06/21 04:17:24;;;;;;;38.33;21.15;;;;;;;9.77;94.00;101560.72;5047011;28;20040;-72
2022/06/21 04:20:34;;;;;;;40.92;23.80;;;;;;;9.91;94.61;101551.47;5046401;28;20115;-72
2022/06/21 04:23:29;;;;;;;37.85;22.08;;;;;;;9.97;94.25;101561.59;5035781;28;20124;-73
2022/06/21 04:26:01;;;;;;;40.88;22.83;;;;;;;10.08;94.25;101568.34;5024135;28;20402;-73
2022/06/21 04:28:44;;;;;;;36.72;22.67;;;;;;;10.27;93.97;101559.31;5044857;28;20035;-73
2022/06/21 04:31:18;;;;;;;37.65;21.33;;;;;;;10.36;94.20;101549.81;5047002;28;20025;-73
2022/06/21 04:33:46;;;;;;;38.20;22.83;;;;;;;10.37;93.99;101556.16;5044872;28;20110;-72
2022/06/21 04:36:16;;;;;;;;;;;;;;;10.47;92.33;101556.56;5046898;28;20037;-72
2022/06/21 04:38:50;;;;;;;43.85;24.95;;;;;;;10.45;93.60;101557.84;5046070;28;20138;-72
2022/06/21 04:41:37;;;;;;;41.20;24.67;;;;;;;10.43;93.96;101548.97;5043527;28;20033;-72
2022/06/21 04:44:12;;;;;;;46.47;26.73;;;;;;;10.44;93.93;101543.28;5043232;28;20082;-73
2022/06/21 04:46:51;;;;;;;43.53;25.67;;;;;;;10.47;94.65;101539.25;5046213;28;20024;-73
2022/06/21 04:49:25;;;;;;;48.13;26.20;;;;;;;10.48;94.50;101541.78;5046307;28;20018;-73
2022/06/21 04:52:00;;;;;;;47.88;27.77;;;;;;;10.50;94.81;101539.69;5039898;28;20060;-73
2022/06/21 04:54:31;;;;;;;45.97;26.17;;;;;;;10.55;95.07;101536.28;5048681;28;20090;-73
2022/06/21 04:57:18;;;;;;;51.95;26.13;;;;;;;10.57;94.76;101529.50;5045247;28;20127;-73
2022/06/21 05:00:07;;;;;;;42.00;26.83;;;;;;;10.65;94.94;101536.69;5045728;28;20020;-74
2022/06/21 05:02:50;;;;;;;47.15;24.40;;;;;;;10.72;95.22;101536.66;5023765;28;20045;-74
2022/06/21 05:05:37;;;;;;;45.15;24.30;;;;;;;10.80;95.39;101534.53;5038002;28;20033;-73
2022/06/21 05:08:21;;;;;;;47.05;23.98;;;;;;;10.88;95.52;101528.78;5045911;28;20036;-74
2022/06/21 05:10:50;;;;;;;44.20;25.63;;;;;;;10.99;95.42;101529.19;5048516;28;20040;-74
2022/06/21 05:13:31;;;;;;;39.72;25.40;;;;;;;11.09;96.30;101532.31;5045842;28;20131;-74
2022/06/21 05:16:00;;;;;;;42.95;23.20;;;;;;;11.17;95.64;101534.84;5044208;28;20028;-73
2022/06/21 05:18:51;;;;;;;43.85;23.00;;;;;;;11.23;94.88;101522.97;5042153;28;20498;-74
2022/06/21 05:21:28;;;;;;;42.28;22.02;;;;;;;11.32;94.31;101537.31;5028919;28;20030;-74
2022/06/21 05:23:54;;;;;;;41.97;21.75;;;;;;;11.36;93.51;101533.91;5041984;28;20040;-74
2022/06/21 05:26:27;;;;;;;39.42;22.30;;;;;;;11.40;92.80;101534.28;5046674;28;20021;-74
2022/06/21 05:28:59;;;;;;;44.05;21.65;;;;;;;11.46;93.53;101533.44;5044763;28;20126;-74
2022/06/21 05:31:29;;;;;;;43.75;23.33;;;;;;;11.55;92.72;101525.75;5043703;28;20500;-74
2022/06/21 05:34:08;;;;;;;40.80;21.92;;;;;;;11.62;92.10;101521.91;5044456;28;20024;-74
2022/06/21 05:36:41;;;;;;;42.97;22.60;;;;;;;11.67;92.12;101533.09;5045489;28;20099;-73
2022/06/21 05:39:22;;;;;;;38.58;20.98;;;;;;;11.79;92.21;101524.97;5044871;28;20028;-74
2022/06/21 05:41:51;;;;;;;39.80;20.25;;;;;;;11.88;91.54;101531.94;5045352;28;20025;-74
2022/06/21 05:44:38;;;;;;;33.05;18.70;;;;;;;12.07;90.55;101535.59;5045266;28;20166;-73
2022/06/21 05:47:14;;;;;;;28.17;16.35;;;;;;;12.30;88.99;101534.97;5044038;28;20025;-74
2022/06/21 05:49:41;;;;;;;24.98;16.55;;;;;;;12.44;87.66;101531.03;5043844;28;20029;-74
2022/06/21 05:52:12;;;;;;;26.73;15.52;;;;;;;12.52;87.46;101540.94;5043547;28;20037;-73
2022/06/21 05:55:21;;;;;;;27.60;15.13;;;;;;;12.62;85.85;101538.50;5044898;28;20033;-73
2022/06/21 05:57:52;;;;;;;28.50;14.80;;;;;;;12.64;85.14;101547.38;5025514;28;20128;-73
2022/06/21 06:00:51;;;;;;;24.33;14.40;;;;;;;12.65;86.67;101554.56;5041274;28;20444;-73
2022/06/21 06:03:25;;;;;;;18.20;12.40;;;;;;;12.63;86.48;101555.88;5034869;28;20037;-73
2022/06/21 06:05:54;;;;;;;24.35;13.23;;;;;;;12.70;86.84;101562.16;5046023;28;20035;-72
2022/06/21 06:08:33;;;;;;;18.88;12.48;;;;;;;12.78;85.23;101566.53;5045471;28;20036;-73
2022/06/21 06:11:02;;;;;;;18.95;10.20;;;;;;;12.85;84.48;101567.31;5045488;28;20045;-72
2022/06/21 06:13:33;;;;;;;16.10;9.88;;;;;;;13.03;82.87;101571.97;5042543;28;20028;-73
2022/06/21 06:16:05;;;;;;;15.82;9.50;;;;;;;13.02;82.00;101575.81;5030874;28;20024;-73
2022/06/21 06:19:00;;;;;;;13.18;8.55;;;;;;;13.05;84.24;101575.38;5035462;28;20508;-73
2022/06/21 06:21:32;;;;;;;15.00;8.82;;;;;;;13.10;83.73;101576.34;5043201;28;20760;-74
2022/06/21 06:24:12;;;;;;;17.50;9.25;;;;;;;13.16;84.06;101589.22;5025009;28;20037;-74
2022/06/21 06:26:40;;;;;;;12.30;7.05;;;;;;;13.20;80.98;101584.09;5040082;28;20028;-72
2022/06/21 06:29:05;;;;;;;;;;;;;;;13.30;82.59;101592.72;5045365;28;20024;-73
2022/06/21 06:31:35;;;;;;;13.93;6.28;;;;;;;13.36;81.64;101588.19;5043837;28;20424;-75
2022/06/21 06:34:08;;;;;;;10.95;6.20;;;;;;;13.38;79.68;101597.94;5039598;28;20020;-74
2022/06/21 06:36:36;;;;;;;10.32;5.85;;;;;;;13.46;81.64;101597.59;5035194;28;20662;-74
2022/06/21 06:39:10;;;;;;;11.95;5.32;;;;;;;13.52;81.53;101593.06;5026723;28;20021;-75
2022/06/21 06:41:55;;;;;;;10.98;5.38;;;;;;;13.67;81.49;101598.19;5024123;28;20040;-74
2022/06/21 06:44:23;;;;;;;10.73;5.43;;;;;;;13.76;78.88;101594.03;5044602;28;20040;-74
2022/06/21 06:46:50;;;;;;;11.48;5.07;;;;;;;13.87;78.27;101584.09;5045168;28;20091;-75
2022/06/21 06:49:39;;;;;;;11.63;5.63;;;;;;;14.00;78.32;101592.19;5043151;28;20063;-74
2022/06/21 06:52:16;;;;;;;10.48;5.40;;;;;;;14.16;79.12;101594.28;5035553;28;20038;-73
2022/06/21 06:55:11;;;;;;;9.95;5.07;;;;;;;14.29;77.47;101595.97;5025452;28;20263;-74
2022/06/21 06:57:47;;;;;;;11.90;5.13;;;;;;;14.32;77.03;101598.28;5035572;28;20021;-73
2022/06/21 07:00:12;;;;;;;8.90;4.95;;;;;;;14.41;77.48;101602.38;5043996;28;20064;-73
2022/06/21 07:02:53;;;;;;;8.98;4.88;;;;;;;14.47;75.53;101600.59;5030396;28;20064;-74
2022/06/21 07:05:26;;;;;;;10.63;4.10;;;;;;;14.56;75.76;101601.13;5025246;28;20398;-74
2022/06/21 07:08:03;;;;;;;9.88;5.18;;;;;;;14.61;74.26;101601.25;5024042;28;20036;-73
2022/06/21 07:10:28;;;;;;;10.18;4.90;;;;;;;14.73;76.44;101599.31;5024784;28;20409;-74
2022/06/21 07:12:55;;;;;;;9.93;5.20;;;;;;;14.77;72.29;101603.28;5025133;28;20029;-74
2022/06/21 07:15:31;;;;;;;9.15;5.10;;;;;;;14.88;74.73;101601.59;5047462;28;20040;-73
2022/06/21 07:17:57;;;;;;;9.13;4.03;;;;;;;14.99;74.76;101597.97;5047151;28;20032;-74
2022/06/21 07:20:27;;;;;;;11.40;5.30;;;;;;;15.08;71.06;101595.69;5048858;28;20021;-72
2022/06/21 07:22:55;;;;;;;9.00;3.92;;;;;;;15.16;71.43;101587.03;5047444;28;20078;-71
2022/06/21 07:25:54;;;;;;;10.25;4.22;;;;;;;15.25;72.14;101585.56;5036845;28;20026;-71
2022/06/21 07:28:34;;;;;;;10.23;4.20;;;;;;;15.32;71.78;101578.81;5029322;28;20176;-72
2022/06/21 07:31:08;;;;;;;8.68;4.07;;;;;;;15.44;71.12;101567.69;5028519;28;20025;-72
2022/06/21 07:33:43;;;;;;;9.25;4.05;;;;;;;15.53;69.69;101565.41;5028415;28;20488;-72
2022/06/21 07:36:15;;;;;;;8.27;4.20;;;;;;;15.58;69.91;101576.56;5043459;28;20355;-72
2022/06/21 07:38:51;;;;;;;8.57;4.30;;;;;;;15.70;70.78;101574.63;5045806;28;20017;-71
2022/06/21 07:41:26;;;;;;;8.52;3.72;;;;;;;15.85;70.29;101593.47;5040462;28;20029;-71
2022/06/21 07:44:01;;;;;;;6.88;3.53;;;;;;;15.94;69.39;101591.97;5047222;28;20028;-71
2022/06/21 07:46:34;;;;;;;7.47;3.92;;;;;;;16.08;66.84;101585.03;5045171;28;20035;-71
2022/06/21 07:49:15;;;;;;;10.07;4.72;;;;;;;16.16;68.73;101583.78;5032512;28;20021;-72
2022/06/21 07:51:48;;;;;;;9.43;3.80;;;;;;;16.17;64.84;101576.31;5040904;28;20044;-71
2022/06/21 07:54:45;;;;;;;11.32;4.10;;;;;;;16.22;66.75;101577.25;5039957;28;20076;-71
2022/06/21 07:57:17;;;;;;;8.80;4.55;;;;;;;16.25;63.88;101573.13;5045269;28;20037;-71
2022/06/21 07:59:49;;;;;;;10.90;4.80;;;;;;;16.29;66.09;101585.41;5041951;28;20125;-72
2022/06/21 08:08:13;;;;;;;9.70;4.10;;;;;;;16.77;66.05;101564.56;5046348;28;20758;-71
2022/06/21 08:10:44;;;;;;;10.63;4.15;;;;;;;16.85;63.25;101551.09;5041328;28;20053;-71
2022/06/21 08:13:10;;;;;;;10.07;4.68;;;;;;;16.78;60.42;101544.06;5046997;28;20082;-70
2022/06/21 08:15:42;;;;;;;11.38;4.25;;;;;;;16.76;63.47;101541.53;5042946;28;20426;-71
2022/06/21 08:18:21;;;;;;;10.82;4.82;;;;;;;16.84;63.06;101548.59;5043632;28;20033;-71
2022/06/21 08:20:57;;;;;;;10.93;5.03;;;;;;;16.74;64.08;101551.22;5047130;28;20063;-71
2022/06/21 08:23:48;;;;;;;8.60;5.00;;;;;;;16.97;65.58;101550.97;5039249;28;20061;-71
2022/06/21 08:26:22;;;;;;;8.85;4.90;;;;;;;17.00;62.81;101552.41;5046510;28;20029;-70
2022/06/21 08:29:12;;;;;;;8.82;4.50;;;;;;;17.05;61.84;101546.94;5046775;28;20040;-71
2022/06/21 08:31:41;;;;;;;7.55;4.38;;;;;;;17.25;59.36;101549.97;5035956;28;20063;-70
2022/06/21 08:34:23;;;;;;;9.38;4.35;;;;;;;17.33;59.22;101543.13;5046651;28;20025;-70
2022/06/21 08:37:00;;;;;;;9.90;4.22;;;;;;;17.48;60.04;101531.34;5043254;28;20075;-71
2022/06/21 08:39:49;;;;;;;10.55;4.38;;;;;;;17.77;60.45;101529.22;5046153;28;20591;-70
2022/06/21 08:42:14;;;;;;;11.35;4.38;;;;;;;17.79;58.51;101527.00;5044126;28;20452;-70
2022/06/21 08:45:40;;;;;;;7.70;4.80;;;;;;;18.01;60.80;101529.75;5047113;28;20037;-70
2022/06/21 08:48:13;;;;;;;9.18;4.32;;;;;;;18.03;60.62;101525.56;5038596;28;20528;-71
2022/06/21 08:51:14;;;;;;;9.52;4.32;;;;;;;18.19;58.19;101525.72;5030875;28;20158;-70
2022/06/21 08:53:57;;;;;;;10.13;4.78;;;;;;;18.33;56.51;101513.03;5011658;28;20044;-70
2022/06/21 08:56:52;;;;;;;8.93;4.50;;;;;;;18.39;58.58;101500.84;5044503;28;20036;-71
2022/06/21 08:59:33;;;;;;;10.13;5.18;;;;;;;18.61;58.44;101496.00;5045260;28;20438;-71
2022/06/21 09:02:23;;;;;;;10.40;5.40;;;;;;;18.96;58.91;101485.34;5043992;28;20045;-72
2022/06/21 09:05:15;;;;;;;9.32;4.50;;;;;;;18.88;56.42;101476.41;5040363;28;20064;-71
2022/06/21 09:07:54;;;;;;;9.82;4.93;;;;;;;18.95;58.30;101462.25;5044178;28;20116;-71
2022/06/21 09:10:29;;;;;;;10.18;4.47;;;;;;;19.08;54.54;101460.91;5039691;28;20029;-71
2022/06/21 09:13:13;;;;;;;7.88;4.20;;;;;;;18.79;57.03;101466.06;5041120;28;20017;-71
2022/06/21 09:15:49;;;;;;;8.52;4.90;;;;;;;18.73;55.50;101486.63;5042092;28;20025;-71
2022/06/21 09:18:31;;;;;;;8.63;3.92;;;;;;;18.81;55.87;101472.22;5041435;28;20025;-71
2022/06/21 09:21:08;;;;;;;10.30;4.60;;;;;;;18.98;53.03;101474.78;5027228;28;20068;-71
2022/06/21 09:24:01;;;;;;;8.80;4.63;;;;;;;19.08;54.33;101472.88;5041279;28;20043;-72
2022/06/21 09:26:48;;;;;;;9.25;5.50;;;;;;;19.49;56.10;101464.66;5045037;28;20102;-72
2022/06/21 09:29:24;;;;;;;11.48;5.05;;;;;;;19.48;51.14;101462.97;5031558;28;20029;-71
2022/06/21 09:32:06;;;;;;;11.30;5.40;;;;;;;19.35;51.36;101460.72;5044943;28;20033;-70
2022/06/21 09:35:01;;;;;;;9.32;5.07;;;;;;;19.49;54.30;101456.28;5039607;28;20493;-70
2022/06/21 09:37:45;;;;;;;9.38;5.10;;;;;;;20.37;50.46;101450.47;5044028;28;20503;-70
2022/06/21 09:40:22;;;;;;;8.98;4.70;;;;;;;21.67;48.53;101451.34;5044958;28;20041;-72
2022/06/21 09:42:56;;;;;;;12.23;5.60;;;;;;;23.52;43.68;101451.06;5046131;28;20083;-71
2022/06/21 09:45:26;;;;;;;10.57;4.60;;;;;;;26.22;40.08;101445.59;5040313;28;20303;-70
2022/06/21 09:48:29;;;;;;;7.18;4.20;;;;;;;27.59;35.73;101437.13;5043852;28;20032;-68
2022/06/21 09:51:14;;;;;;;8.70;4.45;;;;;;;27.16;35.04;101449.19;5042977;28;20045;-72
2022/06/21 09:53:54;;;;;;;10.18;3.92;;;;;;;28.27;33.55;101449.53;5046707;28;20029;-71
2022/06/21 09:56:38;;;;;;;11.32;4.95;;;;;;;29.39;33.24;101453.03;5037246;28;20064;-71
2022/06/21 09:59:17;;;;;;;9.13;4.00;;;;;;;31.42;28.53;101446.16;5036426;28;20451;-71
2022/06/21 10:01:59;;;;;;;8.60;3.47;;;;;;;31.97;31.09;101440.91;5039679;28;20033;-71
2022/06/21 10:04:36;;;;;;;6.07;3.25;;;;;;;31.84;28.36;101437.31;5042865;28;20511;-71
2022/06/21 10:07:18;;;;;;;8.98;3.88;;;;;;;30.70;28.89;101442.16;5038214;28;20390;-70
2022/06/21 10:10:01;;;;;;;8.90;3.75;;;;;;;29.54;30.31;101434.66;5042547;28;20033;-70
2022/06/21 10:12:45;;;;;;;9.50;3.95;;;;;;;27.69;29.94;101433.97;5044532;28;20063;-70
2022/06/21 10:15:24;;;;;;;8.38;3.90;;;;;;;27.24;34.19;101439.09;5043433;28;20532;-71
2022/06/21 10:17:58;;;;;;;9.27;3.80;;;;;;;27.89;36.61;101444.63;5043128;28;20059;-70
2022/06/21 10:20:42;;;;;;;6.47;4.03;;;;;;;27.90;33.17;101440.63;5026526;28;20090;-71
2022/06/21 10:23:40;;;;;;;9.93;3.80;;;;;;;27.16;35.44;101446.38;5039733;28;20044;-71
2022/06/21 10:26:30;;;;;;;10.50;4.30;;;;;;;26.34;37.82;101451.47;5042643;28;20037;-71
2022/06/21 10:28:55;;;;;;;7.75;4.05;;;;;;;25.22;37.78;101437.31;5035112;28;20039;-70
2022/06/21 10:31:37;;;;;;;9.10;4.20;;;;;;;24.44;40.11;101436.38;5040111;28;20037;-69
2022/06/21 10:34:26;;;;;;;7.95;4.30;;;;;;;23.69;40.11;101442.97;5025679;28;20323;-71
2022/06/21 10:37:03;;;;;;;10.70;3.97;;;;;;;22.77;41.38;101446.16;5029598;28;20025;-69
2022/06/21 10:39:54;;;;;;;9.25;3.95;;;;;;;22.49;42.96;101456.25;5036066;28;20088;-70
2022/06/21 10:45:43;;;;;;;8.55;3.15;;;;;;;22.10;45.89;101454.38;5025719;28;21088;-71
2022/06/21 10:48:20;;;;;;;10.07;3.88;;;;;;;22.26;46.79;101447.53;5024249;28;20095;-71
2022/06/21 10:51:05;;;;;;;;;;;;;;;22.82;45.81;101437.69;5042366;28;20032;-72
2022/06/21 10:54:00;;;;;;;8.32;3.22;;;;;;;22.98;44.11;101438.38;5025717;28;19970;-71
2022/06/21 10:57:12;;;;;;;6.53;3.00;;;;;;;23.00;43.01;101450.91;5036621;28;20122;-71
2022/06/21 11:02:45;;;;;;;10.82;3.33;;;;;;;22.92;43.45;101453.56;5024588;28;20056;-70
2022/06/21 11:05:13;;;;;;;7.00;2.85;;;;;;;22.64;41.22;101442.09;5033919;28;20170;-72
2022/06/21 11:07:38;;;;;;;9.18;3.38;;;;;;;22.66;42.17;101442.66;5040677;28;20021;-70
2022/06/21 11:10:20;;;;;;;6.83;3.10;;;;;;;22.55;45.50;101441.06;5044164;28;20056;-70
2022/06/21 11:13:04;;;;;;;9.10;3.42;;;;;;;22.32;42.76;101441.88;5044755;28;20029;-72
2022/06/21 11:15:51;;;;;;;7.70;3.03;;;;;;;22.29;45.88;101440.50;5045639;28;20501;-71
2022/06/21 11:18:27;;;;;;;7.67;3.43;;;;;;;22.36;45.64;101448.56;5042603;28;20117;-71
2022/06/21 11:21:10;;;;;;;6.57;2.50;;;;;;;22.42;45.88;101439.81;5045313;28;20036;-71
2022/06/21 11:23:52;;;;;;;5.75;2.28;;;;;;;22.27;42.41;101449.19;5037261;28;21977;-70
2022/06/21 11:27:01;;;;;;;6.65;2.17;;;;;;;22.22;43.75;101449.25;5036694;28;20072;-71
2022/06/21 11:29:39;;;;;;;6.07;2.30;;;;;;;21.89;44.72;101448.09;5040015;28;20623;-70
2022/06/21 11:32:34;;;;;;;5.78;2.70;;;;;;;21.83;45.96;101442.84;5041848;28;20044;-70
2022/06/21 11:35:35;;;;;;;7.55;3.00;;;;;;;21.53;46.48;101433.56;5044252;28;20379;-71
2022/06/21 11:38:17;;;;;;;6.70;2.85;;;;;;;21.41;44.63;101435.88;5025905;28;20183;-70
2022/06/21 11:40:54;;;;;;;8.68;3.22;;;;;;;21.41;46.78;101444.28;5044325;28;20041;-76
2022/06/21 11:43:37;;;;;;;8.95;2.63;;;;;;;21.32;45.04;101444.03;5041800;28;20112;-76
2022/06/21 11:46:26;;;;;;;6.13;2.38;;;;;;;21.30;46.85;101440.72;5041375;28;20035;-77
2022/06/21 11:49:28;;;;;;;5.88;2.53;;;;;;;21.21;47.60;101442.41;5042258;28;20154;-77
2022/06/21 11:52:21;;;;;;;7.57;3.00;;;;;;;21.29;46.14;101439.00;5010066;28;20189;-76
2022/06/21 11:55:17;;;;;;;8.20;2.22;;;;;;;21.20;49.08;101437.94;5026816;28;20091;-77
2022/06/21 11:58:05;;;;;;;6.57;2.10;;;;;;;21.32;44.74;101423.66;5041670;28;20477;-76
2022/06/21 12:00:47;;;;;;;8.77;1.95;;;;;;;21.14;45.79;101425.97;5039346;28;20114;-77
2022/06/21 12:03:28;;;;;;;8.02;2.10;;;;;;;21.06;48.06;101426.56;5044519;28;20055;-76
2022/06/21 12:05:58;;;;;;;5.03;1.90;;;;;;;21.08;47.98;101420.66;5047120;28;20048;-77
2022/06/21 12:08:28;;;;;;;11.35;2.33;;;;;;;21.21;46.24;101414.47;5045739;28;20036;-77
2022/06/21 12:11:01;;;;;;;6.55;1.75;;;;;;;21.44;46.90;101412.94;5045739;28;20493;-77
2022/06/21 12:13:36;;;;;;;5.88;1.52;;;;;;;21.76;42.55;101415.22;5039110;28;20163;-76
2022/06/21 12:16:37;;;;;;;6.18;1.70;;;;;;;21.93;46.19;101414.78;5028428;28;20043;-76
2022/06/21 12:19:07;;;;;;;4.05;1.67;;;;;;;21.85;42.05;101409.84;4996364;28;20047;-76